Time;durP1;ratioP1;P1;durP2;ratioP2;P2;SDS_P1;SDS_P2;PMS_P1;PMS_P2;Temp;Humidity;BMP_temperature;BMP_pressure;BME280_temperature;BME280_humidity;BME280_pressure;Samples;Min_cycle;Max_cycle;Signal;HPM_P1;HPM_P2
2023/03/30 00:00:54;;;;;;;6.10;4.05;;;;;;;1.28;85.91;99997.67;1763208;81;21197;-80
2023/03/30 00:03:46;;;;;;;6.53;4.58;;;;;;;1.21;86.19;100001.33;1761813;81;21687;-88
2023/03/30 00:06:50;;;;;;;5.97;4.60;;;;;;;1.16;86.41;100000.85;1763339;81;21150;-87
2023/03/30 00:09:55;;;;;;;6.87;4.60;;;;;;;1.15;86.83;99995.59;1763418;81;21197;-87
2023/03/30 00:13:01;;;;;;;7.20;5.08;;;;;;;1.12;87.11;100006.11;1763336;81;21190;-86
2023/03/30 00:16:06;;;;;;;7.78;4.83;;;;;;;1.18;87.00;99998.05;1763331;81;21236;-87
2023/03/30 00:19:11;;;;;;;8.13;4.80;;;;;;;1.16;86.79;99997.30;1763246;81;21209;-87
2023/03/30 00:22:17;;;;;;;7.40;4.70;;;;;;;1.10;87.02;99995.11;1761719;81;21154;-79
2023/03/30 00:25:23;;;;;;;7.95;4.58;;;;;;;1.08;86.87;99995.71;1763244;81;21210;-87
2023/03/30 00:28:36;;;;;;;7.08;5.05;;;;;;;1.07;86.75;99993.51;1763330;81;21205;-87
2023/03/30 00:31:39;;;;;;;7.78;4.92;;;;;;;1.01;87.01;99988.13;1763234;81;21185;-81
2023/03/30 00:34:46;;;;;;;6.33;4.97;;;;;;;1.00;87.13;99986.92;1762657;81;21232;-79
2023/03/30 00:37:54;;;;;;;6.42;4.83;;;;;;;1.09;86.97;99981.28;1761660;81;21213;-87
2023/03/30 00:41:01;;;;;;;5.83;4.37;;;;;;;1.11;86.79;99980.16;1747226;81;21200;-88
2023/03/30 00:44:14;;;;;;;8.93;5.62;;;;;;;1.18;86.36;99990.83;1771527;81;21272;-80
2023/03/30 00:47:19;;;;;;;6.40;4.90;;;;;;;1.21;86.13;99994.59;1771521;81;21145;-87
2023/03/30 00:50:26;;;;;;;6.45;5.53;;;;;;;1.18;86.31;99998.05;1770674;81;21233;-79
2023/03/30 00:53:35;;;;;;;7.67;5.60;;;;;;;1.14;86.33;100000.13;1769950;80;21761;-79
2023/03/30 00:56:41;;;;;;;16.23;5.33;;;;;;;1.11;86.62;99999.52;1771659;81;21188;-87
2023/03/30 00:59:48;;;;;;;7.30;5.87;;;;;;;1.17;86.54;99994.48;1770248;81;21245;-87
2023/03/30 01:03:00;;;;;;;5.70;4.83;;;;;;;1.18;86.51;100002.95;1770393;81;21153;-80
2023/03/30 01:06:08;;;;;;;7.33;5.47;;;;;;;1.27;86.14;100007.59;1771652;81;21204;-87
2023/03/30 01:09:15;;;;;;;6.53;5.25;;;;;;;1.27;86.18;100009.41;1771626;81;21248;-87
2023/03/30 01:12:20;;;;;;;6.78;5.47;;;;;;;1.21;86.19;100005.38;1770450;80;21745;-87
2023/03/30 01:15:26;;;;;;;7.70;5.42;;;;;;;1.23;86.37;100007.47;1771614;81;21778;-87
2023/03/30 01:18:48;;;;;;;9.95;5.62;;;;;;;1.26;86.50;100016.63;1771650;81;21191;-80
2023/03/30 01:22:20;;;;;;;7.28;5.58;;;;;;;1.19;86.69;100022.17;1756151;81;21141;-86
2023/03/30 01:26:01;;;;;;;10.23;5.85;;;;;;;1.23;86.60;100027.68;1752328;82;21204;-79
2023/03/30 01:29:21;;;;;;;7.58;6.10;;;;;;;1.31;86.54;100020.30;1752438;82;21571;-79
2023/03/30 01:32:55;;;;;;;7.75;5.60;;;;;;;1.33;86.37;100017.02;1752427;82;21169;-87
2023/03/30 01:36:30;;;;;;;8.25;5.87;;;;;;;1.28;86.38;100026.81;1751728;81;21794;-80
2023/03/30 01:39:46;;;;;;;10.88;6.30;;;;;;;1.22;86.70;100025.97;1735428;82;21193;-87
2023/03/30 01:43:12;;;;;;;9.30;6.00;;;;;;;1.26;86.51;100024.72;1747810;81;21186;-80
2023/03/30 01:46:42;;;;;;;7.97;5.97;;;;;;;1.38;86.38;100017.49;1714379;83;22089;-80
2023/03/30 01:49:58;;;;;;;10.48;6.03;;;;;;;1.25;86.63;100018.12;1704451;84;21830;-79
2023/03/30 01:53:09;;;;;;;10.10;6.30;;;;;;;1.13;87.20;100017.28;1713907;84;21173;-80
2023/03/30 01:56:38;;;;;;;7.75;6.50;;;;;;;1.22;87.14;100020.59;1705795;84;21181;-88
2023/03/30 02:00:10;;;;;;;7.10;5.78;;;;;;;1.22;87.51;100013.84;1714004;84;21260;-80
2023/03/30 02:03:18;;;;;;;8.20;5.75;;;;;;;1.17;87.62;100007.09;1705587;84;21166;-79
2023/03/30 02:06:42;;;;;;;8.85;5.90;;;;;;;1.14;88.15;100006.02;1713881;84;21763;-87
2023/03/30 02:09:42;;;;;;;8.18;6.05;;;;;;;1.20;88.12;100006.36;1713889;84;21221;-87
2023/03/30 02:12:48;;;;;;;8.93;6.45;;;;;;;1.18;88.40;100010.18;1705539;84;21197;-81
2023/03/30 02:16:02;;;;;;;9.08;6.20;;;;;;;1.16;88.78;100001.34;1735555;81;21544;-79
2023/03/30 02:19:08;;;;;;;8.73;6.28;;;;;;;1.16;88.79;100004.89;1735349;82;21828;-86
2023/03/30 02:22:14;;;;;;;9.20;5.78;;;;;;;1.06;89.28;100005.27;1737321;82;21691;-88
2023/03/30 02:25:22;;;;;;;8.80;6.40;;;;;;;1.16;89.01;100000.00;1736384;82;21747;-88
2023/03/30 02:28:27;;;;;;;10.32;7.05;;;;;;;0.89;90.43;100005.75;1736134;82;21242;-80
2023/03/30 02:31:33;;;;;;;8.83;6.12;;;;;;;0.94;90.58;100008.94;1737232;82;21155;-80
2023/03/30 02:35:25;;;;;;;6.28;5.28;;;;;;;0.88;90.87;100008.08;1736777;82;21756;-79
2023/03/30 02:38:48;;;;;;;10.10;6.03;;;;;;;0.83;91.19;100004.91;1735659;82;21169;-79
2023/03/30 02:42:18;;;;;;;7.20;5.85;;;;;;;0.74;91.40;100007.34;1735758;82;21722;-79
2023/03/30 02:45:50;;;;;;;8.90;6.40;;;;;;;0.72;91.58;99993.64;1733065;83;21225;-80
2023/03/30 02:49:21;;;;;;;10.10;6.53;;;;;;;0.70;91.83;99995.09;1746720;82;21201;-87
2023/03/30 02:52:51;;;;;;;8.83;6.08;;;;;;;0.85;91.25;99986.77;1746739;82;21782;-79
2023/03/30 02:56:21;;;;;;;10.18;6.65;;;;;;;0.77;91.39;99988.75;1741915;82;21190;-80
2023/03/30 02:59:29;;;;;;;9.78;6.33;;;;;;;0.84;91.14;99980.53;1745974;81;21902;-87
2023/03/30 03:02:48;;;;;;;9.50;6.03;;;;;;;0.80;91.41;99982.25;1746695;82;21185;-86
2023/03/30 03:05:55;;;;;;;9.58;5.78;;;;;;;0.74;91.42;99985.80;1745210;81;21806;-88
2023/03/30 03:09:04;;;;;;;9.28;5.87;;;;;;;0.75;91.29;99987.54;1745199;82;21185;-80
2023/03/30 03:12:09;;;;;;;7.90;6.33;;;;;;;0.76;91.09;99988.39;1746659;82;21166;-87
2023/03/30 03:15:16;;;;;;;9.10;6.12;;;;;;;0.65;91.73;99986.52;1745197;82;21241;-87
2023/03/30 03:18:24;;;;;;;8.98;6.22;;;;;;;0.81;91.14;99998.30;1746484;82;21189;-87
2023/03/30 03:21:29;;;;;;;9.15;6.62;;;;;;;0.89;90.65;99993.14;1746473;82;21707;-79
2023/03/30 03:24:38;;;;;;;10.72;6.37;;;;;;;0.80;90.80;99988.52;1746116;82;21224;-87
2023/03/30 03:27:56;;;;;;;9.65;6.55;;;;;;;0.96;90.19;100001.61;1745043;81;21170;-87
2023/03/30 03:31:04;;;;;;;9.28;6.28;;;;;;;0.99;89.62;100007.61;1745251;82;21181;-79
2023/03/30 03:34:10;;;;;;;10.13;5.87;;;;;;;1.08;89.29;99999.75;1745333;81;21256;-79
2023/03/30 03:37:20;;;;;;;6.75;5.47;;;;;;;1.01;89.44;99998.05;1746622;82;21152;-85
2023/03/30 03:40:25;;;;;;;13.25;5.80;;;;;;;1.08;89.15;99999.75;1745627;82;21230;-87
2023/03/30 03:43:32;;;;;;;9.45;6.75;;;;;;;1.01;89.31;100002.09;1746496;82;21169;-88
2023/03/30 03:46:39;;;;;;;11.05;5.85;;;;;;;1.09;89.34;100006.38;1745282;82;21197;-88
2023/03/30 03:49:45;;;;;;;9.93;5.55;;;;;;;0.98;89.31;100001.83;1746023;82;21224;-81
2023/03/30 03:52:51;;;;;;;7.90;5.97;;;;;;;1.06;89.13;100005.77;1746626;82;21158;-87
2023/03/30 03:55:51;;;;;;;7.62;5.75;;;;;;;1.07;89.11;100010.16;1735235;82;21726;-87
2023/03/30 03:58:44;;;;;;;10.80;6.50;;;;;;;1.00;89.26;100013.36;1744981;82;21169;-87
2023/03/30 04:01:50;;;;;;;9.40;6.60;;;;;;;0.97;89.43;100023.52;1746712;82;21160;-80
2023/03/30 04:04:56;;;;;;;9.58;6.20;;;;;;;1.02;89.44;100021.30;1746609;82;21196;-80
2023/03/30 04:08:03;;;;;;;7.92;5.67;;;;;;;1.03;89.38;100021.66;1746521;82;21197;-79
2023/03/30 04:11:15;;;;;;;10.30;6.25;;;;;;;1.20;88.76;100021.18;1746535;82;21209;-87
2023/03/30 04:14:38;;;;;;;7.72;5.20;;;;;;;1.12;88.83;100023.63;1746504;82;21181;-87
2023/03/30 04:18:00;;;;;;;8.05;6.05;;;;;;;0.78;89.63;100020.56;1746596;81;21719;-79
2023/03/30 04:21:16;;;;;;;8.95;5.87;;;;;;;1.11;88.54;100021.92;1745790;82;21217;-87
2023/03/30 04:24:14;;;;;;;7.80;5.62;;;;;;;0.94;88.44;100024.63;1745891;82;21194;-87
2023/03/30 04:27:24;;;;;;;9.55;6.33;;;;;;;1.00;88.74;100024.13;1729546;81;21181;-87
2023/03/30 04:30:32;;;;;;;7.03;6.10;;;;;;;1.12;88.42;100019.59;1746652;81;21212;-87
2023/03/30 04:33:49;;;;;;;8.95;6.03;;;;;;;1.11;88.17;100015.19;1746255;82;21161;-86
2023/03/30 04:36:45;;;;;;;10.75;5.75;;;;;;;0.99;88.88;100010.80;1746164;81;21174;-87
2023/03/30 04:39:56;;;;;;;6.97;5.87;;;;;;;0.85;89.29;100012.36;1746686;82;21165;-87
2023/03/30 04:43:04;;;;;;;8.03;6.03;;;;;;;1.03;88.59;100004.16;1744690;82;21166;-79
2023/03/30 04:46:27;;;;;;;10.40;6.05;;;;;;;1.09;88.32;99998.30;1766387;81;21221;-87
2023/03/30 04:49:39;;;;;;;8.80;6.30;;;;;;;1.00;88.50;100002.59;1771946;81;21738;-88
2023/03/30 04:53:03;;;;;;;9.35;5.62;;;;;;;0.87;89.04;100006.37;1751338;81;21122;-79
2023/03/30 04:56:26;;;;;;;10.80;6.00;;;;;;;1.11;88.42;100008.94;1765693;81;21182;-85
2023/03/30 04:59:35;;;;;;;8.55;5.90;;;;;;;1.06;88.33;100008.45;1762283;81;21750;-87
2023/03/30 05:02:58;;;;;;;8.85;6.75;;;;;;;1.06;88.54;100003.07;1765336;81;21161;-87
2023/03/30 05:06:12;;;;;;;10.20;6.42;;;;;;;1.22;87.99;100005.77;1754992;81;21170;-79
2023/03/30 05:09:20;;;;;;;8.83;6.12;;;;;;;1.32;87.64;100013.96;1733435;83;21205;-87
2023/03/30 05:12:31;;;;;;;9.65;6.33;;;;;;;1.53;86.57;100014.03;1731583;82;21154;-87
2023/03/30 05:15:39;;;;;;;9.10;5.75;;;;;;;1.45;86.40;100014.64;1733400;83;21232;-79
2023/03/30 05:18:49;;;;;;;9.33;5.50;;;;;;;1.58;86.11;100016.35;1664830;82;21209;-87
2023/03/30 05:21:56;;;;;;;12.33;5.58;;;;;;;1.63;85.81;100021.72;1734914;81;21186;-87
2023/03/30 05:25:19;;;;;;;6.00;4.65;;;;;;;1.65;85.47;100030.56;1764239;81;21209;-87
2023/03/30 05:28:27;;;;;;;10.32;4.87;;;;;;;1.64;85.64;100036.06;1763392;81;21133;-79
2023/03/30 05:31:34;;;;;;;8.95;5.72;;;;;;;1.59;84.76;100032.88;1765495;81;21178;-87
2023/03/30 05:34:55;;;;;;;8.95;5.72;;;;;;;1.57;84.71;100038.41;1739100;81;21204;-79
2023/03/30 05:38:09;;;;;;;7.78;5.62;;;;;;;1.61;84.67;100036.33;1754400;80;22134;-80
2023/03/30 05:41:27;;;;;;;5.78;5.12;;;;;;;1.66;84.70;100036.31;1759324;81;21158;-79
2023/03/30 05:44:44;;;;;;;5.55;4.95;;;;;;;1.81;83.38;100042.77;1739587;81;21169;-87
2023/03/30 05:47:54;;;;;;;7.60;5.10;;;;;;;1.82;83.76;100051.22;1676155;85;21180;-80
2023/03/30 05:51:10;;;;;;;7.35;4.92;;;;;;;1.86;83.48;100051.33;1739286;81;21160;-80
2023/03/30 05:54:20;;;;;;;7.58;5.47;;;;;;;1.77;83.71;100049.75;1736903;81;21196;-78
2023/03/30 05:57:37;;;;;;;7.77;5.07;;;;;;;1.86;83.34;100048.64;1679976;83;21197;-86
2023/03/30 06:00:48;;;;;;;6.22;4.83;;;;;;;1.91;82.74;100056.70;1753261;81;21194;-79
2023/03/30 06:03:56;;;;;;;7.47;5.22;;;;;;;1.88;82.63;100056.95;1683709;83;21900;-87
2023/03/30 06:07:03;;;;;;;10.03;5.45;;;;;;;1.77;82.47;100064.59;1718276;82;21208;-86
2023/03/30 06:10:09;;;;;;;10.70;5.22;;;;;;;1.79;82.50;100069.38;1708333;82;21200;-80
2023/03/30 06:13:17;;;;;;;10.05;5.25;;;;;;;1.77;82.15;100071.33;1714671;83;21233;-79
2023/03/30 06:16:23;;;;;;;8.10;5.40;;;;;;;1.86;82.21;100074.27;1706956;81;21157;-87
2023/03/30 06:19:30;;;;;;;6.58;4.80;;;;;;;2.04;82.23;100075.44;1713220;81;21209;-86
2023/03/30 06:22:35;;;;;;;8.05;5.17;;;;;;;2.03;81.74;100073.23;1707602;81;21217;-87
2023/03/30 06:25:43;;;;;;;6.03;4.97;;;;;;;2.07;81.05;100079.23;1727616;82;21213;-79
2023/03/30 06:28:52;;;;;;;6.55;5.58;;;;;;;1.98;81.18;100074.61;1696727;81;21718;-79
2023/03/30 06:31:58;;;;;;;7.90;5.55;;;;;;;1.93;80.94;100071.41;1712930;81;21200;-79
2023/03/30 06:35:03;;;;;;;7.65;5.03;;;;;;;1.78;81.17;100063.59;1713928;81;21777;-79
2023/03/30 06:38:08;;;;;;;7.97;5.10;;;;;;;1.83;81.80;100081.24;1708545;83;21494;-80
2023/03/30 06:41:15;;;;;;;8.73;5.20;;;;;;;1.94;81.59;100081.23;1720662;83;21813;-79
2023/03/30 06:44:21;;;;;;;7.70;4.67;;;;;;;2.02;81.23;100081.44;1713746;81;21165;-80
2023/03/30 06:47:28;;;;;;;6.25;5.08;;;;;;;2.08;80.92;100085.00;1708611;81;21248;-79
2023/03/30 06:50:34;;;;;;;5.83;4.55;;;;;;;2.17;78.67;100082.02;1698540;83;21181;-79
2023/03/30 06:53:41;;;;;;;5.53;4.58;;;;;;;2.11;79.31;100076.62;1704129;82;21210;-86
2023/03/30 06:56:46;;;;;;;7.30;4.47;;;;;;;2.21;78.97;100074.90;1686867;84;21181;-80
2023/03/30 06:59:53;;;;;;;8.80;4.10;;;;;;;1.93;79.05;100060.61;1719451;82;21169;-79
2023/03/30 07:03:05;;;;;;;6.70;3.87;;;;;;;1.92;78.70;100058.41;1720645;81;21162;-86
2023/03/30 07:06:19;;;;;;;3.83;2.85;;;;;;;1.85;79.34;100057.72;1694182;83;21691;-87
2023/03/30 07:09:25;;;;;;;4.67;3.27;;;;;;;1.84;78.98;100061.41;1699263;84;21145;-80
2023/03/30 07:12:31;;;;;;;4.70;3.35;;;;;;;1.87;78.00;100071.92;1729512;83;21198;-87
2023/03/30 07:15:36;;;;;;;3.92;2.83;;;;;;;1.55;77.50;100075.41;1732236;82;21238;-86
2023/03/30 07:18:42;;;;;;;4.70;3.20;;;;;;;1.43;78.92;100068.33;1717049;83;21193;-79
2023/03/30 07:21:47;;;;;;;4.58;3.70;;;;;;;1.32;79.27;100067.86;1683506;83;21190;-86
2023/03/30 07:24:54;;;;;;;5.67;3.25;;;;;;;1.31;80.36;100063.91;1716210;83;21169;-87
2023/03/30 07:28:00;;;;;;;3.95;3.45;;;;;;;1.31;81.21;100049.09;1702623;82;21173;-80
2023/03/30 07:31:13;;;;;;;5.35;3.62;;;;;;;1.43;81.08;100054.85;1711403;83;21197;-81
2023/03/30 07:34:18;;;;;;;4.03;3.00;;;;;;;1.42;80.59;100043.72;1704541;83;21221;-87
2023/03/30 07:37:24;;;;;;;4.78;3.33;;;;;;;1.42;80.64;100055.84;1716270;83;21146;-79
2023/03/30 07:40:29;;;;;;;3.62;2.87;;;;;;;1.40;80.26;100055.09;1700747;83;21736;-87
2023/03/30 07:43:36;;;;;;;3.83;2.85;;;;;;;1.39;80.06;100063.67;1691258;82;21174;-79
2023/03/30 07:46:42;;;;;;;3.35;2.80;;;;;;;1.52;80.73;100064.89;1716172;83;21166;-80
2023/03/30 07:49:49;;;;;;;3.15;2.85;;;;;;;1.60;80.36;100068.29;1708342;83;21173;-79
2023/03/30 07:52:58;;;;;;;3.05;2.50;;;;;;;1.62;79.68;100067.69;1698755;83;21170;-88
2023/03/30 07:56:05;;;;;;;4.10;3.05;;;;;;;1.54;79.85;100068.30;1706989;83;21201;-79
2023/03/30 07:59:12;;;;;;;2.65;2.42;;;;;;;1.52;79.85;100054.96;1714829;83;21197;-80
2023/03/30 08:02:20;;;;;;;3.30;2.37;;;;;;;1.62;80.02;100057.77;1701720;82;21730;-88
2023/03/30 08:05:26;;;;;;;5.95;3.15;;;;;;;1.59;79.97;100055.80;1683695;84;21233;-80
2023/03/30 08:08:42;;;;;;;3.40;2.90;;;;;;;1.67;80.24;100054.69;1724324;83;21229;-87
2023/03/30 08:11:47;;;;;;;4.75;3.50;;;;;;;1.78;79.60;100047.91;1708612;83;21197;-87
2023/03/30 08:14:54;;;;;;;4.67;2.83;;;;;;;1.69;79.99;100053.56;1725587;81;21196;-79
2023/03/30 08:18:03;;;;;;;4.03;2.58;;;;;;;1.69;80.26;100052.22;1716202;83;21163;-79
2023/03/30 08:21:07;;;;;;;5.33;2.83;;;;;;;1.65;79.72;100046.73;1689267;84;21193;-87
2023/03/30 08:24:13;;;;;;;5.47;3.15;;;;;;;1.61;78.60;100043.92;1705177;83;21339;-89
2023/03/30 08:27:20;;;;;;;3.40;2.72;;;;;;;1.54;79.17;100035.95;1708082;83;21215;-79
2023/03/30 08:30:26;;;;;;;3.75;3.15;;;;;;;1.59;79.01;100041.83;1707711;82;21173;-88
2023/03/30 08:33:34;;;;;;;9.28;3.95;;;;;;;1.62;78.27;100038.89;1669416;84;21210;-79
2023/03/30 08:36:40;;;;;;;12.03;5.45;;;;;;;1.46;78.12;100041.14;1704405;82;21799;-80
2023/03/30 08:39:46;;;;;;;9.93;4.62;;;;;;;1.45;78.33;100036.21;1721562;83;21169;-81
2023/03/30 08:43:23;;;;;;;5.83;3.95;;;;;;;1.45;78.15;100041.60;1696888;82;21741;-78
2023/03/30 08:46:30;;;;;;;7.33;4.25;;;;;;;1.51;77.70;100040.27;1693046;83;21208;-79
2023/03/30 08:49:36;;;;;;;4.95;3.65;;;;;;;1.46;77.88;100036.60;1716586;83;21794;-80
2023/03/30 08:52:42;;;;;;;5.08;3.35;;;;;;;1.46;77.49;100027.66;1767689;81;21181;-87
2023/03/30 08:56:02;;;;;;;4.58;3.55;;;;;;;1.48;77.40;100029.23;1709577;83;21180;-86
2023/03/30 08:59:15;;;;;;;3.90;2.92;;;;;;;1.50;75.71;100031.30;1694022;82;21253;-87
2023/03/30 09:02:36;;;;;;;8.63;4.28;;;;;;;1.57;75.38;100035.72;1712492;82;21189;-87
2023/03/30 09:05:45;;;;;;;4.62;3.30;;;;;;;1.56;75.63;100038.55;1702977;82;21165;-87
2023/03/30 09:08:51;;;;;;;3.45;2.83;;;;;;;1.53;74.65;100037.80;1698814;82;21188;-87
2023/03/30 09:12:02;;;;;;;4.58;3.08;;;;;;;1.55;74.68;100036.31;1732441;82;21169;-87
2023/03/30 09:15:20;;;;;;;5.67;3.35;;;;;;;1.59;73.10;100043.17;1710673;83;21177;-80
2023/03/30 09:18:38;;;;;;;3.62;3.10;;;;;;;1.49;73.05;100039.02;1701672;82;21188;-86
2023/03/30 09:21:45;;;;;;;3.72;2.77;;;;;;;1.52;73.43;100040.63;1706509;83;21185;-79
2023/03/30 09:24:52;;;;;;;4.05;2.95;;;;;;;1.47;73.76;100044.19;1723435;82;21692;-80
2023/03/30 09:28:16;;;;;;;3.35;2.90;;;;;;;1.54;73.74;100043.55;1718856;83;21750;-87
2023/03/30 09:31:30;;;;;;;5.47;3.37;;;;;;;1.47;73.53;100048.23;1722235;81;21141;-79
2023/03/30 09:35:04;;;;;;;5.03;2.98;;;;;;;1.51;73.72;100048.36;1677461;83;21241;-79
2023/03/30 09:38:09;;;;;;;5.50;2.45;;;;;;;1.64;73.95;100047.70;1707455;81;21204;-87
2023/03/30 09:41:42;;;;;;;6.35;2.90;;;;;;;1.79;72.57;100034.81;1713792;81;21169;-80
2023/03/30 09:45:06;;;;;;;2.75;2.40;;;;;;;1.82;72.38;100035.04;1706674;80;21229;-80
2023/03/30 09:48:13;;;;;;;3.02;2.72;;;;;;;1.88;71.79;100034.02;1745633;80;21157;-87
2023/03/30 09:51:27;;;;;;;3.17;2.47;;;;;;;1.99;71.01;100039.89;1714926;82;21176;-87
2023/03/30 09:54:35;;;;;;;3.83;2.45;;;;;;;1.86;70.71;100048.14;1709854;83;21233;-87
2023/03/30 09:57:41;;;;;;;4.20;2.47;;;;;;;2.01;70.65;100047.36;1662043;84;21200;-87
2023/03/30 10:00:47;;;;;;;2.45;2.25;;;;;;;1.95;70.55;100047.88;1750141;79;21193;-79
2023/03/30 10:04:16;;;;;;;2.65;2.02;;;;;;;2.05;69.97;100040.23;1749605;81;21201;-87
2023/03/30 10:07:27;;;;;;;2.70;2.25;;;;;;;2.05;69.48;100040.23;1752114;81;21254;-87
2023/03/30 10:10:42;;;;;;;2.58;2.00;;;;;;;1.96;69.97;100039.64;1738008;80;21187;-82
2023/03/30 10:13:50;;;;;;;3.35;2.20;;;;;;;2.08;69.02;100036.92;1741313;81;21205;-89
2023/03/30 10:16:56;;;;;;;3.10;2.67;;;;;;;1.91;68.81;100027.53;1744718;81;21142;-88
2023/03/30 10:20:21;;;;;;;2.72;2.37;;;;;;;1.92;69.16;100026.54;1763087;79;21253;-89
2023/03/30 10:23:29;;;;;;;3.05;2.55;;;;;;;1.84;69.81;100015.56;1746708;79;21142;-89
2023/03/30 10:26:35;;;;;;;5.53;3.12;;;;;;;1.84;69.61;100017.76;1753545;79;21197;-87
2023/03/30 10:29:41;;;;;;;3.62;2.58;;;;;;;1.81;69.80;100009.06;1745935;79;21189;-81
2023/03/30 10:32:49;;;;;;;3.10;2.80;;;;;;;1.77;70.04;100012.49;1748461;79;21138;-82
2023/03/30 10:35:59;;;;;;;3.98;2.70;;;;;;;1.70;70.94;100008.61;1699974;82;21746;-79
2023/03/30 10:39:21;;;;;;;3.40;2.75;;;;;;;1.73;71.92;100001.10;1742863;79;21157;-86
2023/03/30 10:42:28;;;;;;;3.60;2.70;;;;;;;1.84;71.34;100000.73;1747834;81;21801;-86
2023/03/30 10:45:46;;;;;;;3.17;2.67;;;;;;;1.90;70.48;99998.85;1742816;80;21174;-86
2023/03/30 10:49:25;;;;;;;3.62;2.77;;;;;;;1.97;69.76;99987.89;1741157;80;21169;-86
2023/03/30 10:52:59;;;;;;;2.80;2.50;;;;;;;1.97;69.35;99994.14;1748428;81;21195;-86
2023/03/30 10:56:35;;;;;;;3.10;2.60;;;;;;;2.03;69.61;99991.45;1740613;80;21212;-79
2023/03/30 10:59:39;;;;;;;3.83;2.70;;;;;;;1.99;70.20;99986.80;1746489;81;21248;-79
2023/03/30 11:02:59;;;;;;;3.33;2.62;;;;;;;2.02;69.81;99989.70;1750795;81;21170;-79
2023/03/30 11:06:23;;;;;;;;;;;;;;;1.77;70.42;99986.37;1752136;81;21165;-79
2023/03/30 11:09:33;;;;;;;5.33;3.50;;;;;;;1.89;70.74;99976.92;1744033;80;20251;-79
2023/03/30 11:12:41;;;;;;;5.40;3.65;;;;;;;1.89;71.11;99978.27;1705634;83;21197;-80
2023/03/30 11:18:04;;;;;;;6.37;3.72;;;;;;;1.46;73.05;99971.91;1839279;76;28711;-84
2023/03/30 11:21:30;;;;;;;5.00;3.30;;;;;;;1.48;73.79;99971.77;1779487;79;21173;-84
2023/03/30 11:24:38;;;;;;;5.05;3.40;;;;;;;1.56;73.32;99965.77;1798079;79;21153;-84
2023/03/30 11:27:52;;;;;;;8.33;3.92;;;;;;;1.59;73.36;99969.03;1786825;79;21751;-85
2023/03/30 11:31:00;;;;;;;4.95;3.87;;;;;;;1.63;73.63;99964.25;1783548;79;21245;-84
2023/03/30 11:34:50;;;;;;;5.72;4.10;;;;;;;1.56;73.04;99962.57;1798249;79;21212;-84
2023/03/30 11:38:29;;;;;;;6.28;5.28;;;;;;;1.58;73.31;99965.98;1792113;79;21141;-84
2023/03/30 11:41:51;;;;;;;4.85;3.67;;;;;;;1.65;73.91;99957.77;1798569;79;21208;-85
2023/03/30 11:44:57;;;;;;;4.87;4.22;;;;;;;1.71;73.23;99953.69;1758226;79;21548;-84
2023/03/30 11:48:13;;;;;;;5.25;4.00;;;;;;;1.73;73.02;99953.05;1796702;79;21221;-85
2023/03/30 11:51:48;;;;;;;4.87;4.03;;;;;;;1.75;73.34;99949.27;1784064;79;21149;-84
2023/03/30 11:55:03;;;;;;;5.05;4.50;;;;;;;1.79;73.51;99941.28;1795887;79;21166;-84
2023/03/30 11:58:23;;;;;;;10.20;4.75;;;;;;;1.86;73.14;99952.39;1806008;79;21136;-85
2023/03/30 12:01:45;;;;;;;5.12;4.42;;;;;;;1.88;73.00;99943.67;1793048;79;21864;-85
2023/03/30 12:04:57;;;;;;;7.70;4.72;;;;;;;1.89;73.54;99937.81;1805068;79;21169;-84
2023/03/30 12:08:19;;;;;;;7.15;4.72;;;;;;;1.79;73.89;99952.56;1799887;79;21204;-84
2023/03/30 12:11:38;;;;;;;6.95;4.87;;;;;;;1.86;73.80;99935.36;1788651;79;21228;-84
2023/03/30 12:15:09;;;;;;;10.95;5.58;;;;;;;2.04;73.65;99941.39;1759092;80;21731;-84
2023/03/30 12:18:46;;;;;;;7.97;4.53;;;;;;;2.07;73.28;99934.90;1781672;79;21250;-84
2023/03/30 12:22:07;;;;;;;8.10;5.33;;;;;;;2.06;72.88;99933.16;1745480;80;21201;-84
2023/03/30 12:25:25;;;;;;;6.95;5.70;;;;;;;2.15;72.40;99937.77;1769471;80;21212;-84
2023/03/30 12:28:31;;;;;;;6.58;5.40;;;;;;;1.68;73.87;99939.11;1781871;80;21248;-85
2023/03/30 12:32:03;;;;;;;6.58;5.20;;;;;;;1.70;74.12;99936.66;1782403;80;21200;-84
2023/03/30 12:35:08;;;;;;;11.08;5.25;;;;;;;1.72;73.85;99935.17;1769656;80;21204;-83
2023/03/30 12:38:16;;;;;;;6.12;5.35;;;;;;;1.81;73.88;99940.29;1768028;80;21822;-83
2023/03/30 12:41:26;;;;;;;6.87;4.92;;;;;;;1.82;73.66;99929.36;1781647;80;21248;-84
2023/03/30 12:44:47;;;;;;;7.17;5.08;;;;;;;1.76;74.35;99928.05;1780785;80;21177;-83
2023/03/30 12:48:06;;;;;;;6.17;4.50;;;;;;;1.69;74.23;99926.84;1781233;80;21220;-84
2023/03/30 12:51:35;;;;;;;6.83;4.95;;;;;;;1.68;74.46;99928.32;1783429;80;21188;-85
2023/03/30 12:54:51;;;;;;;6.12;4.92;;;;;;;1.73;74.76;99928.30;1765615;80;21180;-84
2023/03/30 12:58:14;;;;;;;5.15;4.20;;;;;;;1.86;74.80;99921.38;1781932;80;21783;-84
2023/03/30 13:01:31;;;;;;;5.97;4.33;;;;;;;1.79;74.97;99911.62;1773963;80;21244;-85
2023/03/30 13:04:43;;;;;;;5.75;4.65;;;;;;;1.87;75.03;99915.48;1783064;80;21187;-85
2023/03/30 13:07:50;;;;;;;7.40;5.30;;;;;;;1.89;74.24;99904.09;1778226;80;21169;-84
2023/03/30 13:10:55;;;;;;;7.05;5.03;;;;;;;1.91;74.02;99908.85;1773348;79;21243;-84
2023/03/30 13:14:07;;;;;;;6.05;4.87;;;;;;;1.97;73.89;99904.27;1781829;80;21231;-84
2023/03/30 13:17:22;;;;;;;5.95;4.75;;;;;;;1.97;73.70;99895.69;1779790;80;21213;-84
2023/03/30 13:20:36;;;;;;;5.33;4.58;;;;;;;2.04;73.76;99891.98;1729448;82;21164;-84
2023/03/30 13:23:43;;;;;;;6.72;4.50;;;;;;;2.08;73.94;99893.93;1689476;84;21852;-83
2023/03/30 13:26:50;;;;;;;4.62;4.15;;;;;;;1.95;73.49;99888.23;1683482;85;21205;-83
2023/03/30 13:30:09;;;;;;;6.40;4.80;;;;;;;1.96;73.30;99883.69;1680625;84;21212;-83
2023/03/30 13:33:25;;;;;;;5.42;4.62;;;;;;;1.97;72.79;99885.39;1687613;84;21249;-83
2023/03/30 13:36:33;;;;;;;5.10;4.35;;;;;;;2.02;73.44;99886.73;1686437;84;21193;-84
2023/03/30 13:39:47;;;;;;;7.15;4.70;;;;;;;1.97;73.12;99877.30;1688980;84;21214;-84
2023/03/30 13:43:24;;;;;;;6.55;5.08;;;;;;;2.03;73.34;99881.69;1673854;85;21261;-84
2023/03/30 13:46:58;;;;;;;5.08;4.30;;;;;;;1.91;73.84;99876.48;1679865;84;21285;-83
2023/03/30 13:50:09;;;;;;;5.65;4.70;;;;;;;1.82;74.03;99877.27;1687498;84;21219;-83
2023/03/30 13:53:16;;;;;;;5.87;4.90;;;;;;;1.86;73.63;99881.42;1687733;85;21511;-84
2023/03/30 13:56:23;;;;;;;7.35;5.03;;;;;;;2.04;73.45;99879.84;1688801;85;21529;-83
2023/03/30 13:59:32;;;;;;;7.35;5.58;;;;;;;2.05;73.62;99874.80;1694531;83;21254;-83
2023/03/30 14:02:38;;;;;;;7.22;5.35;;;;;;;1.91;73.60;99869.24;1689027;85;21180;-84
2023/03/30 14:05:37;;;;;;;6.60;4.92;;;;;;;1.83;73.69;99870.38;1699884;83;21224;-83
2023/03/30 14:08:45;;;;;;;6.12;4.50;;;;;;;1.93;74.50;99865.05;1680765;85;21219;-83
2023/03/30 14:11:57;;;;;;;4.90;4.25;;;;;;;2.04;74.28;99867.20;1671371;83;21825;-84
2023/03/30 14:15:04;;;;;;;5.12;4.12;;;;;;;2.08;73.33;99863.76;1680491;85;21189;-84
2023/03/30 14:18:11;;;;;;;7.25;4.37;;;;;;;1.87;73.94;99862.40;1659576;85;21232;-84
2023/03/30 14:21:30;;;;;;;5.25;4.42;;;;;;;1.86;74.67;99864.74;1711855;84;21755;-84
2023/03/30 14:24:40;;;;;;;5.85;4.40;;;;;;;1.95;74.68;99860.41;1711039;84;21276;-85
2023/03/30 14:27:46;;;;;;;7.50;4.67;;;;;;;1.88;74.92;99851.97;1711173;84;22572;-84
2023/03/30 14:31:06;;;;;;;5.45;4.20;;;;;;;1.90;75.15;99854.55;1710117;84;21189;-85
2023/03/30 14:34:32;;;;;;;7.60;5.12;;;;;;;1.92;74.94;99856.61;1710956;84;21185;-85
2023/03/30 14:37:36;;;;;;;5.47;3.92;;;;;;;1.99;74.48;99853.27;1668651;85;21201;-85
2023/03/30 14:40:47;;;;;;;4.97;3.85;;;;;;;1.97;75.03;99847.63;1640614;86;21308;-85
2023/03/30 14:44:12;;;;;;;5.75;4.15;;;;;;;1.98;75.27;99850.21;1662738;86;21233;-84
2023/03/30 14:47:18;;;;;;;5.55;4.40;;;;;;;2.08;74.74;99839.97;1663008;86;21213;-84
2023/03/30 14:50:21;;;;;;;5.95;4.35;;;;;;;2.08;74.81;99839.48;1662041;86;21212;-84
2023/03/30 14:53:31;;;;;;;4.65;3.77;;;;;;;2.01;74.94;99843.67;1672793;85;21253;-85
2023/03/30 14:56:36;;;;;;;5.75;3.83;;;;;;;1.96;75.71;99837.83;1691351;85;22561;-84
2023/03/30 14:59:46;;;;;;;9.00;3.58;;;;;;;1.88;76.17;99836.28;1689661;85;21860;-84
2023/03/30 15:02:53;;;;;;;6.17;3.92;;;;;;;1.98;75.86;99834.52;1689438;84;21232;-85
2023/03/30 15:05:59;;;;;;;3.60;3.30;;;;;;;1.97;75.53;99828.24;1690467;85;22680;-85
2023/03/30 15:09:09;;;;;;;4.08;3.60;;;;;;;1.92;75.48;99830.98;1689875;85;21205;-82
2023/03/30 15:12:21;;;;;;;4.53;3.87;;;;;;;1.95;75.63;99826.69;1689096;84;21224;-83